Time;durP1;ratioP1;P1;durP2;ratioP2;P2;SDS_P1;SDS_P2;PMS_P1;PMS_P2;Temp;Humidity;BMP_temperature;BMP_pressure;BME280_temperature;BME280_humidity;BME280_pressure;Samples;Min_cycle;Max_cycle;Signal;HPM_P1;HPM_P2
2020/12/05 00:01:29;;;;;;;;;;;;;;;;;;5013824;28;20500;-62
2020/12/05 00:03:56;;;;;;;;;;;;;;;;;;5009934;28;19968;-63
2020/12/05 00:06:22;;;;;;;;;;;;;;;;;;5011462;28;19933;-64
2020/12/05 00:08:49;;;;;;;;;;;;;;;;;;5002520;28;20361;-64
2020/12/05 00:11:15;;;;;;;;;;;;;;;;;;5008643;28;19925;-64
2020/12/05 00:13:42;;;;;;;;;;;;;;;;;;5009038;28;20035;-64
2020/12/05 00:16:08;;;;;;;;;;;;;;;;;;5013490;28;20402;-65
2020/12/05 00:18:35;;;;;;;;;;;;;;;;;;5008207;28;20302;-64
2020/12/05 00:21:01;;;;;;;;;;;;;;;;;;5005940;28;19926;-64
2020/12/05 00:23:28;;;;;;;;;;;;;;;;;;5007180;28;19965;-64
2020/12/05 00:25:54;;;;;;;;;;;;;;;;;;5014067;28;19984;-64
2020/12/05 00:28:21;;;;;;;;;;;;;;;;;;5012773;28;19965;-65
2020/12/05 00:30:47;;;;;;;;;;;;;;;;;;5005593;28;19976;-64
2020/12/05 00:33:14;;;;;;;;;;;;;;;;;;5003089;28;19925;-64
2020/12/05 00:35:40;;;;;;;;;;;;;;;;;;5008713;28;20372;-64
2020/12/05 00:38:07;;;;;;;;;;;;;;;;;;5009703;28;19981;-64
2020/12/05 00:40:33;;;;;;;;;;;;;;;;;;5007933;28;19926;-65
2020/12/05 00:43:00;;;;;;;;;;;;;;;;;;5004413;28;20344;-65
2020/12/05 00:45:26;;;;;;;;;;;;;;;;;;5006323;28;20009;-64
2020/12/05 00:47:53;;;;;;;;;;;;;;;;;;4994767;28;20398;-64
2020/12/05 00:50:19;;;;;;;;;;;;;;;;;;5006150;28;20021;-64
2020/12/05 00:52:46;;;;;;;;;;;;;;;;;;5003596;28;19960;-65
2020/12/05 00:55:12;;;;;;;;;;;;;;;;;;4999428;28;20313;-64
2020/12/05 00:57:39;;;;;;;;;;;;;;;;;;5006529;28;19933;-64
2020/12/05 01:00:05;;;;;;;;;;;;;;;;;;5009122;28;19972;-65
2020/12/05 01:02:32;;;;;;;;;;;;;;;;;;5011409;28;19972;-65
2020/12/05 01:04:58;;;;;;;;;;;;;;;;;;5000755;28;19930;-65
2020/12/05 01:07:25;;;;;;;;;;;;;;;;;;5003281;28;19925;-63
2020/12/05 01:09:52;;;;;;;;;;;;;;;;;;5012319;28;19934;-65
2020/12/05 01:12:18;;;;;;;;;;;;;;;;;;5010303;28;20339;-65
2020/12/05 01:14:45;;;;;;;;;;;;;;;;;;5007216;28;19981;-64
2020/12/05 01:17:11;;;;;;;;;;;;;;;;;;5004084;28;19984;-64
2020/12/05 01:19:38;;;;;;;;;;;;;;;;;;5011248;28;19960;-64
2020/12/05 01:22:04;;;;;;;;;;;;;;;;;;5008791;28;19985;-64
2020/12/05 01:24:31;;;;;;;;;;;;;;;;;;5012569;28;19975;-65
2020/12/05 01:26:57;;;;;;;;;;;;;;;;;;5006355;28;19926;-64
2020/12/05 01:29:24;;;;;;;;;;;;;;;;;;4997886;28;19969;-64
2020/12/05 01:31:50;;;;;;;;;;;;;;;;;;5002825;28;20363;-64
2020/12/05 01:34:17;;;;;;;;;;;;;;;;;;5003750;28;19981;-65
2020/12/05 01:36:43;;;;;;;;;;;;;;;;;;5010673;28;20027;-65
2020/12/05 01:39:10;;;;;;;;;;;;;;;;;;5012047;28;20012;-65
2020/12/05 01:41:36;;;;;;;;;;;;;;;;;;5012259;28;19975;-64
2020/12/05 01:44:03;;;;;;;;;;;;;;;;;;5011438;28;20751;-65
2020/12/05 01:46:29;;;;;;;;;;;;;;;;;;5006518;28;19988;-67
2020/12/05 01:48:56;;;;;;;;;;;;;;;;;;5010687;28;20020;-66
2020/12/05 01:51:22;;;;;;;;;;;;;;;;;;5004966;28;20412;-64
2020/12/05 01:53:49;;;;;;;;;;;;;;;;;;5011176;28;19929;-62
2020/12/05 01:56:15;;;;;;;;;;;;;;;;;;5001730;28;19926;-65
2020/12/05 01:58:42;;;;;;;;;;;;;;;;;;5008504;28;20016;-65
2020/12/05 02:01:08;;;;;;;;;;;;;;;;;;5007312;28;19976;-65
2020/12/05 02:03:35;;;;;;;;;;;;;;;;;;5005134;28;19969;-65
2020/12/05 02:06:01;;;;;;;;;;;;;;;;;;5001336;28;19979;-65
2020/12/05 02:08:28;;;;;;;;;;;;;;;;;;4998120;28;19977;-64
2020/12/05 02:10:54;;;;;;;;;;;;;;;;;;5007597;28;19933;-64
2020/12/05 02:13:21;;;;;;;;;;;;;;;;;;5008512;28;19964;-65
2020/12/05 02:15:47;;;;;;;;;;;;;;;;;;4997671;28;20425;-65
2020/12/05 02:18:14;;;;;;;;;;;;;;;;;;5005530;28;19976;-64
2020/12/05 02:20:40;;;;;;;;;;;;;;;;;;5007195;28;19968;-64
2020/12/05 02:23:07;;;;;;;;;;;;;;;;;;5006128;28;19964;-64
2020/12/05 02:25:33;;;;;;;;;;;;;;;;;;5009809;28;19949;-64
2020/12/05 02:28:00;;;;;;;;;;;;;;;;;;5007953;28;20356;-65
2020/12/05 02:30:32;;;;;;;;;;;;;;;;;;5007184;28;20293;-64
2020/12/05 02:32:58;;;;;;;;;;;;;;;;;;5009581;28;19949;-64
2020/12/05 02:35:25;;;;;;;;;;;;;;;;;;5009926;28;20389;-63
2020/12/05 02:37:51;;;;;;;;;;;;;;;;;;5009261;28;19926;-63
2020/12/05 02:40:18;;;;;;;;;;;;;;;;;;5010388;28;20463;-64
2020/12/05 02:42:44;;;;;;;;;;;;;;;;;;5010816;28;19969;-64
2020/12/05 02:45:11;;;;;;;;;;;;;;;;;;5005440;28;20013;-64
2020/12/05 02:47:37;;;;;;;;;;;;;;;;;;5008171;28;19960;-63
2020/12/05 02:50:04;;;;;;;;;;;;;;;;;;5007065;28;19965;-63
2020/12/05 02:52:30;;;;;;;;;;;;;;;;;;5006072;28;19925;-65
2020/12/05 02:54:57;;;;;;;;;;;;;;;;;;5007781;28;20020;-64
2020/12/05 02:57:23;;;;;;;;;;;;;;;;;;5007568;28;20021;-64
2020/12/05 02:59:50;;;;;;;;;;;;;;;;;;5005932;28;19925;-63
2020/12/05 03:02:16;;;;;;;;;;;;;;;;;;5006106;28;19965;-64
2020/12/05 03:04:43;;;;;;;;;;;;;;;;;;5010557;28;20016;-64
2020/12/05 03:07:09;;;;;;;;;;;;;;;;;;5007976;28;19965;-64
2020/12/05 03:09:36;;;;;;;;;;;;;;;;;;5007348;28;19957;-63
2020/12/05 03:12:03;;;;;;;;;;;;;;;;;;5004832;28;20370;-64
2020/12/05 03:14:29;;;;;;;;;;;;;;;;;;4998356;28;19995;-63
2020/12/05 03:16:56;;;;;;;;;;;;;;;;;;5014657;28;19925;-64
2020/12/05 03:19:22;;;;;;;;;;;;;;;;;;5014092;28;19925;-64
2020/12/05 03:21:49;;;;;;;;;;;;;;;;;;5025562;28;19934;-64
2020/12/05 03:24:15;;;;;;;;;;;;;;;;;;5029464;28;19929;-65
2020/12/05 03:26:42;;;;;;;;;;;;;;;;;;5023241;28;19932;-64
2020/12/05 03:29:08;;;;;;;;;;;;;;;;;;5006018;28;20043;-64
2020/12/05 03:31:46;;;;;;;;;;;;;;;;;;5016673;28;19949;-64
2020/12/05 03:34:13;;;;;;;;;;;;;;;;;;5023972;28;19926;-65
2020/12/05 03:36:39;;;;;;;;;;;;;;;;;;5017394;28;19980;-65
2020/12/05 03:39:06;;;;;;;;;;;;;;;;;;5028376;28;19929;-65
2020/12/05 03:41:32;;;;;;;;;;;;;;;;;;5015124;28;19929;-65
2020/12/05 03:43:59;;;;;;;;;;;;;;;;;;5001904;28;19991;-65
2020/12/05 03:46:25;;;;;;;;;;;;;;;;;;5004416;28;19961;-64
2020/12/05 03:48:52;;;;;;;;;;;;;;;;;;5000519;28;19972;-65
2020/12/05 03:51:18;;;;;;;;;;;;;;;;;;5012787;28;20356;-65
2020/12/05 03:53:45;;;;;;;;;;;;;;;;;;5012241;28;19973;-65
2020/12/05 03:56:12;;;;;;;;;;;;;;;;;;5011925;28;19932;-64
2020/12/05 03:58:38;;;;;;;;;;;;;;;;;;5013486;28;20020;-64
2020/12/05 04:01:05;;;;;;;;;;;;;;;;;;5005883;28;19988;-65
2020/12/05 04:03:31;;;;;;;;;;;;;;;;;;5004172;28;20013;-64
2020/12/05 04:05:58;;;;;;;;;;;;;;;;;;5004121;28;20072;-65
2020/12/05 04:08:24;;;;;;;;;;;;;;;;;;5003301;28;20330;-64
2020/12/05 04:10:53;;;;;;;;;;;;;;;;;;5006095;28;20390;-65
2020/12/05 04:13:20;;;;;;;;;;;;;;;;;;5014554;28;19972;-65
2020/12/05 04:15:46;;;;;;;;;;;;;;;;;;5004763;28;19926;-64
2020/12/05 04:18:13;;;;;;;;;;;;;;;;;;5011869;28;20023;-65
2020/12/05 04:20:39;;;;;;;;;;;;;;;;;;5009830;28;20436;-65
2020/12/05 04:23:06;;;;;;;;;;;;;;;;;;5007270;28;19964;-65
2020/12/05 04:25:32;;;;;;;;;;;;;;;;;;5006438;28;20029;-65
2020/12/05 04:27:59;;;;;;;;;;;;;;;;;;5005160;28;19977;-65
2020/12/05 04:30:25;;;;;;;;;;;;;;;;;;5007458;28;20349;-65
2020/12/05 04:32:52;;;;;;;;;;;;;;;;;;5002524;28;19984;-65
2020/12/05 04:35:19;;;;;;;;;;;;;;;;;;5011894;28;19968;-65
2020/12/05 04:37:46;;;;;;;;;;;;;;;;;;5004604;28;19933;-65
2020/12/05 04:40:12;;;;;;;;;;;;;;;;;;5013146;28;19926;-65
2020/12/05 04:42:39;;;;;;;;;;;;;;;;;;5015024;28;19926;-64
2020/12/05 04:45:05;;;;;;;;;;;;;;;;;;5007876;28;19988;-65
2020/12/05 04:47:32;;;;;;;;;;;;;;;;;;5051835;23;20023;-63
2020/12/05 04:49:58;;;;;;;;;;;;;;;;;;5037424;28;19969;-64
2020/12/05 04:52:25;;;;;;;;;;;;;;;;;;5044294;28;20367;-64
2020/12/05 04:54:51;;;;;;;;;;;;;;;;;;5037002;28;20028;-66
2020/12/05 04:57:18;;;;;;;;;;;;;;;;;;5026074;28;20340;-62
2020/12/05 04:59:44;;;;;;;;;;;;;;;;;;5023579;28;19956;-64
2020/12/05 05:02:11;;;;;;;;;;;;;;;;;;5026357;28;19971;-66
2020/12/05 05:04:37;;;;;;;;;;;;;;;;;;5030391;28;19975;-64
2020/12/05 05:07:04;;;;;;;;;;;;;;;;;;5032438;28;19971;-64
2020/12/05 05:09:31;;;;;;;;;;;;;;;;;;5025819;28;20021;-63
2020/12/05 05:11:58;;;;;;;;;;;;;;;;;;5023346;28;19933;-64
2020/12/05 05:14:24;;;;;;;;;;;;;;;;;;5021923;28;20231;-65
2020/12/05 05:16:51;;;;;;;;;;;;;;;;;;5026887;28;20071;-62
2020/12/05 05:19:17;;;;;;;;;;;;;;;;;;5023925;28;20036;-65
2020/12/05 05:21:44;;;;;;;;;;;;;;;;;;5014081;28;20046;-65
2020/12/05 05:24:10;;;;;;;;;;;;;;;;;;5030291;28;19988;-64
2020/12/05 05:26:37;;;;;;;;;;;;;;;;;;5020358;28;19926;-63
2020/12/05 05:29:03;;;;;;;;;;;;;;;;;;5017856;28;20293;-64
2020/12/05 05:31:42;;;;;;;;;;;;;;;;;;5019044;28;20340;-63
2020/12/05 05:34:08;;;;;;;;;;;;;;;;;;5019630;28;19932;-64
2020/12/05 05:36:35;;;;;;;;;;;;;;;;;;5022297;28;19929;-63
2020/12/05 05:39:02;;;;;;;;;;;;;;;;;;5021624;28;20008;-64
2020/12/05 05:41:29;;;;;;;;;;;;;;;;;;5017274;28;19975;-64
2020/12/05 05:43:56;;;;;;;;;;;;;;;;;;5017158;28;20306;-62
2020/12/05 05:46:22;;;;;;;;;;;;;;;;;;5014099;28;20441;-65
2020/12/05 05:48:49;;;;;;;;;;;;;;;;;;5018301;28;20333;-61
2020/12/05 05:51:15;;;;;;;;;;;;;;;;;;5026663;28;20349;-60
2020/12/05 05:53:42;;;;;;;;;;;;;;;;;;5023133;28;19937;-61
2020/12/05 05:56:08;;;;;;;;;;;;;;;;;;5017037;28;20033;-61
2020/12/05 05:58:35;;;;;;;;;;;;;;;;;;5029105;28;19940;-62
2020/12/05 06:01:01;;;;;;;;;;;;;;;;;;5031583;28;20004;-63
2020/12/05 06:03:28;;;;;;;;;;;;;;;;;;5028133;28;20367;-61
2020/12/05 06:05:55;;;;;;;;;;;;;;;;;;5028444;28;19972;-63
2020/12/05 06:08:21;;;;;;;;;;;;;;;;;;5022546;28;19968;-62
2020/12/05 06:10:48;;;;;;;;;;;;;;;;;;5024228;28;20332;-62
2020/12/05 06:13:14;;;;;;;;;;;;;;;;;;5029297;28;19932;-62
2020/12/05 06:15:41;;;;;;;;;;;;;;;;;;5013666;28;19973;-60
2020/12/05 06:18:07;;;;;;;;;;;;;;;;;;5021383;28;20345;-60
2020/12/05 06:20:34;;;;;;;;;;;;;;;;;;5017260;28;20012;-62
2020/12/05 06:23:00;;;;;;;;;;;;;;;;;;5020552;28;20023;-64
2020/12/05 06:25:27;;;;;;;;;;;;;;;;;;5026210;28;20288;-61
2020/12/05 06:27:53;;;;;;;;;;;;;;;;;;5014678;28;19925;-61
2020/12/05 06:30:20;;;;;;;;;;;;;;;;;;5025408;28;19980;-62
2020/12/05 06:32:47;;;;;;;;;;;;;;;;;;5020863;28;20024;-62
2020/12/05 06:35:15;;;;;;;;;;;;;;;;;;5016285;28;20025;-60
2020/12/05 06:37:42;;;;;;;;;;;;;;;;;;5015875;28;19937;-60
2020/12/05 06:40:08;;;;;;;;;;;;;;;;;;5014677;28;20377;-59
2020/12/05 06:42:35;;;;;;;;;;;;;;;;;;5019344;28;20020;-62
2020/12/05 06:45:01;;;;;;;;;;;;;;;;;;5013745;28;19971;-64
2020/12/05 06:47:28;;;;;;;;;;;;;;;;;;5018369;28;19937;-60
2020/12/05 06:49:54;;;;;;;;;;;;;;;;;;5019114;28;19956;-61
2020/12/05 06:52:21;;;;;;;;;;;;;;;;;;5021069;28;20012;-64
2020/12/05 06:54:47;;;;;;;;;;;;;;;;;;5018602;28;19984;-63
2020/12/05 06:57:14;;;;;;;;;;;;;;;;;;5023734;28;20333;-60
2020/12/05 06:59:40;;;;;;;;;;;;;;;;;;5022896;28;19965;-59
2020/12/05 07:02:07;;;;;;;;;;;;;;;;;;5015097;28;20281;-60
2020/12/05 07:04:33;;;;;;;;;;;;;;;;;;5014940;28;20008;-62
2020/12/05 07:07:00;;;;;;;;;;;;;;;;;;5027246;28;19925;-63
2020/12/05 07:09:26;;;;;;;;;;;;;;;;;;5011861;28;19925;-60
2020/12/05 07:11:53;;;;;;;;;;;;;;;;;;5019851;28;19995;-61
2020/12/05 07:14:19;;;;;;;;;;;;;;;;;;5030555;28;19932;-61
2020/12/05 07:16:46;;;;;;;;;;;;;;;;;;5013697;28;20028;-59
2020/12/05 07:19:13;;;;;;;;;;;;;;;;;;5012198;28;20028;-61
2020/12/05 07:21:39;;;;;;;;;;;;;;;;;;5025350;28;19972;-61
2020/12/05 07:24:06;;;;;;;;;;;;;;;;;;5012633;28;20148;-61
2020/12/05 07:26:32;;;;;;;;;;;;;;;;;;5018005;28;20027;-61
2020/12/05 07:28:59;;;;;;;;;;;;;;;;;;5020417;28;19968;-61
2020/12/05 07:31:25;;;;;;;;;;;;;;;;;;5027763;28;20004;-63
2020/12/05 07:33:52;;;;;;;;;;;;;;;;;;5011856;28;20023;-63
2020/12/05 07:36:18;;;;;;;;;;;;;;;;;;5011192;28;19980;-64
2020/12/05 07:38:45;;;;;;;;;;;;;;;;;;5025713;28;19926;-64
2020/12/05 07:41:11;;;;;;;;;;;;;;;;;;5017992;28;19925;-61
2020/12/05 07:43:38;;;;;;;;;;;;;;;;;;5014660;28;19933;-61
2020/12/05 07:46:04;;;;;;;;;;;;;;;;;;5011272;28;20015;-62
2020/12/05 07:48:31;;;;;;;;;;;;;;;;;;5013889;28;19937;-63
2020/12/05 07:50:57;;;;;;;;;;;;;;;;;;5013186;28;19968;-60
2020/12/05 07:53:24;;;;;;;;;;;;;;;;;;5015848;28;19992;-65
2020/12/05 07:55:50;;;;;;;;;;;;;;;;;;5021475;28;19925;-61
2020/12/05 07:58:17;;;;;;;;;;;;;;;;;;5018737;28;20363;-63
2020/12/05 08:00:43;;;;;;;;;;;;;;;;;;5012619;28;20032;-64
2020/12/05 08:03:10;;;;;;;;;;;;;;;;;;5023860;28;19925;-64
2020/12/05 08:05:36;;;;;;;;;;;;;;;;;;5019605;28;19971;-65
2020/12/05 08:08:03;;;;;;;;;;;;;;;;;;5029362;28;19936;-65
2020/12/05 08:10:29;;;;;;;;;;;;;;;;;;5021061;28;19984;-64
2020/12/05 08:12:56;;;;;;;;;;;;;;;;;;5023006;28;19960;-65
2020/12/05 08:15:22;;;;;;;;;;;;;;;;;;5020262;28;19933;-65
2020/12/05 08:17:49;;;;;;;;;;;;;;;;;;5025166;28;20333;-65
2020/12/05 08:20:15;;;;;;;;;;;;;;;;;;5018871;28;19925;-63
2020/12/05 08:22:42;;;;;;;;;;;;;;;;;;5031831;28;20373;-65
2020/12/05 08:25:08;;;;;;;;;;;;;;;;;;5018024;28;19925;-67
2020/12/05 08:27:35;;;;;;;;;;;;;;;;;;5032133;28;20249;-65
2020/12/05 08:30:01;;;;;;;;;;;;;;;;;;5020117;28;20032;-66
2020/12/05 08:32:28;;;;;;;;;;;;;;;;;;5015511;28;20023;-63
2020/12/05 08:34:55;;;;;;;;;;;;;;;;;;5016898;28;19937;-64
2020/12/05 08:37:21;;;;;;;;;;;;;;;;;;5018807;28;19929;-64
2020/12/05 08:39:48;;;;;;;;;;;;;;;;;;5025263;28;20192;-64
2020/12/05 08:42:14;;;;;;;;;;;;;;;;;;5019696;28;19925;-64
2020/12/05 08:44:41;;;;;;;;;;;;;;;;;;5028151;28;19925;-64
2020/12/05 08:47:07;;;;;;;;;;;;;;;;;;5018662;28;19929;-64
2020/12/05 08:49:34;;;;;;;;;;;;;;;;;;5026948;28;20025;-64
2020/12/05 08:52:00;;;;;;;;;;;;;;;;;;5024541;28;20445;-63
2020/12/05 08:54:27;;;;;;;;;;;;;;;;;;5020713;28;19929;-64
2020/12/05 08:56:53;;;;;;;;;;;;;;;;;;5014237;28;19925;-65
2020/12/05 08:59:20;;;;;;;;;;;;;;;;;;5026457;28;19979;-64
2020/12/05 09:01:47;;;;;;;;;;;;;;;;;;5024667;28;20012;-65
2020/12/05 09:04:14;;;;;;;;;;;;;;;;;;5016746;28;19929;-68
2020/12/05 09:06:40;;;;;;;;;;;;;;;;;;5017276;28;19972;-66
2020/12/05 09:09:07;;;;;;;;;;;;;;;;;;5023207;28;19925;-66
2020/12/05 09:11:33;;;;;;;;;;;;;;;;;;5023570;28;19960;-67
2020/12/05 09:14:00;;;;;;;;;;;;;;;;;;5017142;28;19969;-65
2020/12/05 09:16:26;;;;;;;;;;;;;;;;;;5018049;28;20369;-65
2020/12/05 09:18:53;;;;;;;;;;;;;;;;;;5028553;28;19976;-63
2020/12/05 09:21:19;;;;;;;;;;;;;;;;;;5015612;28;19926;-64
2020/12/05 09:23:46;;;;;;;;;;;;;;;;;;5017718;28;19945;-65
2020/12/05 09:26:12;;;;;;;;;;;;;;;;;;5018507;28;19929;-65
2020/12/05 09:28:39;;;;;;;;;;;;;;;;;;5017350;28;20215;-65
2020/12/05 09:31:06;;;;;;;;;;;;;;;;;;5014006;28;20406;-64
2020/12/05 09:33:33;;;;;;;;;;;;;;;;;;5015949;28;20530;-64
2020/12/05 09:35:59;;;;;;;;;;;;;;;;;;5021686;28;19929;-65
2020/12/05 09:38:26;;;;;;;;;;;;;;;;;;5023705;28;20008;-64
2020/12/05 09:40:52;;;;;;;;;;;;;;;;;;5017172;28;19972;-64
2020/12/05 09:43:19;;;;;;;;;;;;;;;;;;5014658;28;19968;-65
2020/12/05 09:45:46;;;;;;;;;;;;;;;;;;5022127;28;19983;-64
2020/12/05 09:48:13;;;;;;;;;;;;;;;;;;5016375;28;19979;-65
2020/12/05 09:50:39;;;;;;;;;;;;;;;;;;5028603;28;19925;-66
2020/12/05 09:53:06;;;;;;;;;;;;;;;;;;5023100;28;19925;-64
2020/12/05 09:55:32;;;;;;;;;;;;;;;;;;5027292;28;20020;-63
2020/12/05 09:57:59;;;;;;;;;;;;;;;;;;5014783;28;19980;-65
2020/12/05 10:00:25;;;;;;;;;;;;;;;;;;5022682;28;19960;-65
2020/12/05 10:02:52;;;;;;;;;;;;;;;;;;5013746;28;19929;-64
2020/12/05 10:05:19;;;;;;;;;;;;;;;;;;5022146;28;20064;-65
2020/12/05 10:07:45;;;;;;;;;;;;;;;;;;5013912;28;19973;-65
2020/12/05 10:10:12;;;;;;;;;;;;;;;;;;5019448;28;20035;-65
2020/12/05 10:12:38;;;;;;;;;;;;;;;;;;5020434;28;20375;-65
2020/12/05 10:15:05;;;;;;;;;;;;;;;;;;5012212;28;19929;-66
2020/12/05 10:17:31;;;;;;;;;;;;;;;;;;5017987;28;19976;-63
2020/12/05 10:19:58;;;;;;;;;;;;;;;;;;5023961;28;19971;-66
2020/12/05 10:22:24;;;;;;;;;;;;;;;;;;5024798;28;19960;-66
2020/12/05 10:24:51;;;;;;;;;;;;;;;;;;5017827;28;19929;-64
2020/12/05 10:27:18;;;;;;;;;;;;;;;;;;5014774;28;19980;-64
2020/12/05 10:29:44;;;;;;;;;;;;;;;;;;5023841;28;20412;-66
2020/12/05 10:32:11;;;;;;;;;;;;;;;;;;5028516;28;19968;-65
2020/12/05 10:34:38;;;;;;;;;;;;;;;;;;5017828;28;19925;-65
2020/12/05 10:37:04;;;;;;;;;;;;;;;;;;5016951;28;20051;-66
2020/12/05 10:39:31;;;;;;;;;;;;;;;;;;5018987;28;19959;-67
2020/12/05 10:41:57;;;;;;;;;;;;;;;;;;5027564;28;19964;-65
2020/12/05 10:44:24;;;;;;;;;;;;;;;;;;5027893;28;19926;-66
2020/12/05 10:46:50;;;;;;;;;;;;;;;;;;5021349;28;19926;-64
2020/12/05 10:49:17;;;;;;;;;;;;;;;;;;5019853;28;19971;-65
2020/12/05 10:51:43;;;;;;;;;;;;;;;;;;5011236;28;20076;-64
2020/12/05 10:54:10;;;;;;;;;;;;;;;;;;5016307;28;19929;-64
2020/12/05 10:56:36;;;;;;;;;;;;;;;;;;5025382;28;19956;-64
2020/12/05 10:59:03;;;;;;;;;;;;;;;;;;5026744;28;19941;-64
2020/12/05 11:01:30;;;;;;;;;;;;;;;;;;5022435;28;19925;-64
2020/12/05 11:03:56;;;;;;;;;;;;;;;;;;5022000;28;19925;-64
2020/12/05 11:06:23;;;;;;;;;;;;;;;;;;5022365;28;20012;-65
2020/12/05 11:08:49;;;;;;;;;;;;;;;;;;5017961;28;19967;-65
2020/12/05 11:11:16;;;;;;;;;;;;;;;;;;5024172;28;19929;-64
2020/12/05 11:13:42;;;;;;;;;;;;;;;;;;5013947;28;20007;-66
2020/12/05 11:16:09;;;;;;;;;;;;;;;;;;5015988;28;20409;-64
2020/12/05 11:18:35;;;;;;;;;;;;;;;;;;5014630;28;20346;-65
2020/12/05 11:21:02;;;;;;;;;;;;;;;;;;5019961;28;19972;-62
2020/12/05 11:23:28;;;;;;;;;;;;;;;;;;5012087;28;19976;-64
2020/12/05 11:25:55;;;;;;;;;;;;;;;;;;5025461;28;20012;-65
2020/12/05 11:28:22;;;;;;;;;;;;;;;;;;5013370;28;19929;-65
2020/12/05 11:30:48;;;;;;;;;;;;;;;;;;5017702;28;19926;-65
2020/12/05 11:33:15;;;;;;;;;;;;;;;;;;5013022;28;19965;-65
2020/12/05 11:35:41;;;;;;;;;;;;;;;;;;5021452;28;19965;-64
2020/12/05 11:38:08;;;;;;;;;;;;;;;;;;5018399;28;19967;-66
2020/12/05 11:40:34;;;;;;;;;;;;;;;;;;5019310;28;19959;-63
2020/12/05 11:43:01;;;;;;;;;;;;;;;;;;5020985;28;19934;-64
2020/12/05 11:45:27;;;;;;;;;;;;;;;;;;5018975;28;20211;-65
2020/12/05 11:47:54;;;;;;;;;;;;;;;;;;5018045;28;19987;-65
2020/12/05 11:50:20;;;;;;;;;;;;;;;;;;5024457;28;20401;-64
2020/12/05 11:52:47;;;;;;;;;;;;;;;;;;5027437;28;20286;-62
2020/12/05 11:55:14;;;;;;;;;;;;;;;;;;5026981;28;19925;-63
2020/12/05 11:57:40;;;;;;;;;;;;;;;;;;5020761;28;20071;-63
2020/12/05 12:00:07;;;;;;;;;;;;;;;;;;5032793;28;19983;-63
2020/12/05 12:02:33;;;;;;;;;;;;;;;;;;5024706;28;19987;-65
2020/12/05 12:05:00;;;;;;;;;;;;;;;;;;5030659;28;19925;-64
2020/12/05 12:07:28;;;;;;;;;;;;;;;;;;5024030;28;19971;-63
2020/12/05 12:09:54;;;;;;;;;;;;;;;;;;5027379;28;19929;-65
2020/12/05 12:12:21;;;;;;;;;;;;;;;;;;5023021;28;19968;-64
2020/12/05 12:14:47;;;;;;;;;;;;;;;;;;5013187;28;20410;-63
2020/12/05 12:17:14;;;;;;;;;;;;;;;;;;5027043;28;20408;-65
2020/12/05 12:19:40;;;;;;;;;;;;;;;;;;5015517;28;19972;-65
2020/12/05 12:22:07;;;;;;;;;;;;;;;;;;5026919;28;20385;-63
2020/12/05 12:24:33;;;;;;;;;;;;;;;;;;5018853;28;20028;-62
2020/12/05 12:27:00;;;;;;;;;;;;;;;;;;5025047;28;19925;-63
2020/12/05 12:29:26;;;;;;;;;;;;;;;;;;5018818;28;19933;-65
2020/12/05 12:31:53;;;;;;;;;;;;;;;;;;5020512;28;19968;-63
2020/12/05 12:34:20;;;;;;;;;;;;;;;;;;5014355;28;19930;-64
2020/12/05 12:36:46;;;;;;;;;;;;;;;;;;5031634;28;19925;-65
2020/12/05 12:39:13;;;;;;;;;;;;;;;;;;5024062;28;19968;-63
2020/12/05 12:41:39;;;;;;;;;;;;;;;;;;5020090;28;20023;-62
2020/12/05 12:44:06;;;;;;;;;;;;;;;;;;5021233;28;19979;-65
2020/12/05 12:46:33;;;;;;;;;;;;;;;;;;5015081;28;19975;-60
2020/12/05 12:49:00;;;;;;;;;;;;;;;;;;5015346;28;19929;-62
2020/12/05 12:51:26;;;;;;;;;;;;;;;;;;5021706;28;19965;-63
2020/12/05 12:53:53;;;;;;;;;;;;;;;;;;5027066;28;19945;-64
2020/12/05 12:56:21;;;;;;;;;;;;;;;;;;5028075;28;20019;-66
2020/12/05 12:58:49;;;;;;;;;;;;;;;;;;5018037;28;19925;-63
2020/12/05 13:01:16;;;;;;;;;;;;;;;;;;5015575;28;20016;-64
2020/12/05 13:03:42;;;;;;;;;;;;;;;;;;5024337;28;19926;-64
2020/12/05 13:06:09;;;;;;;;;;;;;;;;;;5022331;28;19980;-65
2020/12/05 13:08:36;;;;;;;;;;;;;;;;;;5018246;28;20011;-63
2020/12/05 13:11:02;;;;;;;;;;;;;;;;;;5013508;28;20348;-62
2020/12/05 13:13:29;;;;;;;;;;;;;;;;;;5016716;28;19929;-63
2020/12/05 13:15:55;;;;;;;;;;;;;;;;;;5023745;28;20299;-64
2020/12/05 13:18:22;;;;;;;;;;;;;;;;;;5018074;28;19929;-64
2020/12/05 13:20:48;;;;;;;;;;;;;;;;;;5024591;28;20006;-63
2020/12/05 13:23:15;;;;;;;;;;;;;;;;;;5014431;28;19969;-63
2020/12/05 13:25:41;;;;;;;;;;;;;;;;;;5029566;28;19991;-65
2020/12/05 13:28:08;;;;;;;;;;;;;;;;;;5027516;28;20023;-62
2020/12/05 13:30:34;;;;;;;;;;;;;;;;;;5021682;28;20361;-66
2020/12/05 13:33:01;;;;;;;;;;;;;;;;;;5017230;28;19933;-65
2020/12/05 13:35:27;;;;;;;;;;;;;;;;;;5022019;28;20232;-64
2020/12/05 13:37:54;;;;;;;;;;;;;;;;;;5019180;28;19968;-62
2020/12/05 13:40:20;;;;;;;;;;;;;;;;;;5023623;28;19980;-63
2020/12/05 13:42:47;;;;;;;;;;;;;;;;;;5018051;28;19964;-64
2020/12/05 13:45:13;;;;;;;;;;;;;;;;;;5024002;28;20349;-61
2020/12/05 13:47:40;;;;;;;;;;;;;;;;;;5019343;28;20021;-63
2020/12/05 13:50:06;;;;;;;;;;;;;;;;;;5024863;28;20348;-64
2020/12/05 13:52:33;;;;;;;;;;;;;;;;;;5017820;28;19925;-62
2020/12/05 13:54:59;;;;;;;;;;;;;;;;;;5014535;28;20348;-62
2020/12/05 13:57:26;;;;;;;;;;;;;;;;;;5027824;28;19925;-61
2020/12/05 13:59:52;;;;;;;;;;;;;;;;;;5019489;28;20453;-59
2020/12/05 14:02:19;;;;;;;;;;;;;;;;;;5012274;28;19980;-62
2020/12/05 14:04:45;;;;;;;;;;;;;;;;;;5030141;28;19975;-64
2020/12/05 14:07:12;;;;;;;;;;;;;;;;;;5014143;28;19965;-62
2020/12/05 14:09:38;;;;;;;;;;;;;;;;;;5027598;28;19960;-64
2020/12/05 14:12:04;;;;;;;;;;;;;;;;;;5030683;28;20012;-60
2020/12/05 14:14:31;;;;;;;;;;;;;;;;;;5016153;28;19972;-62
2020/12/05 14:16:58;;;;;;;;;;;;;;;;;;5019846;28;19972;-63
2020/12/05 14:19:25;;;;;;;;;;;;;;;;;;5015233;28;20437;-62
2020/12/05 14:21:51;;;;;;;;;;;;;;;;;;5017844;28;19965;-63
2020/12/05 14:24:18;;;;;;;;;;;;;;;;;;5012858;28;20341;-63
2020/12/05 14:26:44;;;;;;;;;;;;;;;;;;5013688;28;19929;-65
2020/12/05 14:29:10;;;;;;;;;;;;;;;;;;5017900;28;19925;-62
2020/12/05 14:31:37;;;;;;;;;;;;;;;;;;5020663;28;20012;-62
2020/12/05 14:34:03;;;;;;;;;;;;;;;;;;5031243;28;19971;-59
2020/12/05 14:36:30;;;;;;;;;;;;;;;;;;5012208;28;19926;-63
2020/12/05 14:38:56;;;;;;;;;;;;;;;;;;5014688;28;19925;-60
2020/12/05 14:41:23;;;;;;;;;;;;;;;;;;5016497;28;20385;-59
2020/12/05 14:43:49;;;;;;;;;;;;;;;;;;5019953;28;20019;-60
2020/12/05 14:46:16;;;;;;;;;;;;;;;;;;5022405;28;19926;-58
2020/12/05 14:48:43;;;;;;;;;;;;;;;;;;5022411;28;20008;-63
2020/12/05 14:51:09;;;;;;;;;;;;;;;;;;5020229;28;20290;-62
2020/12/05 14:53:35;;;;;;;;;;;;;;;;;;5013682;28;19980;-62
2020/12/05 14:56:04;;;;;;;;;;;;;;;;;;5022886;28;20465;-61
2020/12/05 14:58:31;;;;;;;;;;;;;;;;;;5016829;28;20013;-64
2020/12/05 15:00:57;;;;;;;;;;;;;;;;;;5019616;28;19929;-65
2020/12/05 15:03:24;;;;;;;;;;;;;;;;;;5017067;28;20341;-64
2020/12/05 15:05:50;;;;;;;;;;;;;;;;;;5019644;28;20216;-64
2020/12/05 15:08:17;;;;;;;;;;;;;;;;;;5024894;28;19929;-64
2020/12/05 15:10:43;;;;;;;;;;;;;;;;;;5021037;28;19956;-64
2020/12/05 15:13:10;;;;;;;;;;;;;;;;;;5022974;28;20377;-65
2020/12/05 15:15:36;;;;;;;;;;;;;;;;;;5022441;28;20009;-63
2020/12/05 15:18:03;;;;;;;;;;;;;;;;;;5019872;28;20451;-63
2020/12/05 15:20:29;;;;;;;;;;;;;;;;;;5021568;28;20376;-64
2020/12/05 15:22:56;;;;;;;;;;;;;;;;;;5021984;28;20382;-65
2020/12/05 15:25:22;;;;;;;;;;;;;;;;;;5033775;28;19925;-66
2020/12/05 15:27:49;;;;;;;;;;;;;;;;;;5045654;28;19933;-65
2020/12/05 15:30:17;;;;;;;;;;;;;;;;;;5016126;28;20048;-65
2020/12/05 15:32:43;;;;;;;;;;;;;;;;;;5023885;28;20024;-65
2020/12/05 15:35:10;;;;;;;;;;;;;;;;;;5024093;28;19933;-64
2020/12/05 15:37:36;;;;;;;;;;;;;;;;;;5028017;28;19969;-64
2020/12/05 15:40:03;;;;;;;;;;;;;;;;;;5028492;28;19983;-65
2020/12/05 15:42:30;;;;;;;;;;;;;;;;;;5032332;28;20003;-62
2020/12/05 15:44:56;;;;;;;;;;;;;;;;;;5022549;28;19978;-65
2020/12/05 15:47:23;;;;;;;;;;;;;;;;;;5018865;28;19929;-64
2020/12/05 15:49:49;;;;;;;;;;;;;;;;;;5028735;28;19948;-64
2020/12/05 15:52:16;;;;;;;;;;;;;;;;;;5021971;28;19926;-64
2020/12/05 15:54:42;;;;;;;;;;;;;;;;;;5032239;28;19933;-63
2020/12/05 15:57:09;;;;;;;;;;;;;;;;;;5031819;28;19983;-64
2020/12/05 15:59:35;;;;;;;;;;;;;;;;;;5026587;28;19948;-65
2020/12/05 16:02:02;;;;;;;;;;;;;;;;;;5027123;28;20180;-65
2020/12/05 16:04:29;;;;;;;;;;;;;;;;;;5028898;28;19972;-63
2020/12/05 16:06:55;;;;;;;;;;;;;;;;;;5021682;28;19957;-62
2020/12/05 16:09:22;;;;;;;;;;;;;;;;;;5014985;28;20404;-66
2020/12/05 16:11:48;;;;;;;;;;;;;;;;;;5020997;28;19968;-64
2020/12/05 16:14:15;;;;;;;;;;;;;;;;;;5024620;28;19934;-61
2020/12/05 16:16:41;;;;;;;;;;;;;;;;;;5021195;28;19931;-65
2020/12/05 16:19:08;;;;;;;;;;;;;;;;;;5016493;28;19930;-64
2020/12/05 16:21:34;;;;;;;;;;;;;;;;;;5017166;28;20429;-65
2020/12/05 16:24:01;;;;;;;;;;;;;;;;;;5022413;28;19964;-62
2020/12/05 16:26:27;;;;;;;;;;;;;;;;;;5020755;28;19988;-64
2020/12/05 16:28:55;;;;;;;;;;;;;;;;;;5022227;28;20081;-65
2020/12/05 16:31:22;;;;;;;;;;;;;;;;;;5033208;28;20365;-66
2020/12/05 16:33:48;;;;;;;;;;;;;;;;;;5025754;28;19926;-64
2020/12/05 16:36:15;;;;;;;;;;;;;;;;;;5027676;28;20294;-66
2020/12/05 16:38:41;;;;;;;;;;;;;;;;;;5019136;28;20286;-64
2020/12/05 16:41:08;;;;;;;;;;;;;;;;;;5014911;28;20437;-64